Time;durP1;ratioP1;P1;durP2;ratioP2;P2;SDS_P1;SDS_P2;PMS_P1;PMS_P2;Temp;Humidity;BMP_temperature;BMP_pressure;BME280_temperature;BME280_humidity;BME280_pressure;Samples;Min_cycle;Max_cycle;Signal;HPM_P1;HPM_P2
2022/08/14 00:02:19;;;;;;;0.10;0.10;;;;;;;23.95;49.69;100851.81;5130745;27;20043;-35
2022/08/14 00:04:45;;;;;;;0.10;0.10;;;;;;;23.94;49.70;100839.03;5132750;27;20071;-35
2022/08/14 00:07:11;;;;;;;0.10;0.10;;;;;;;23.95;49.62;100835.13;5130506;27;20379;-35
2022/08/14 00:09:42;;;;;;;0.10;0.10;;;;;;;23.96;49.74;100833.16;5129131;27;20039;-35
2022/08/14 00:12:29;;;;;;;0.10;0.10;;;;;;;23.94;49.84;100827.91;5105769;27;20480;-35
2022/08/14 00:15:09;;;;;;;0.10;0.10;;;;;;;23.95;49.83;100831.53;5128797;27;20050;-35
2022/08/14 00:17:35;;;;;;;0.10;0.10;;;;;;;23.95;49.85;100826.78;5128611;27;20047;-35
2022/08/14 00:20:14;;;;;;;0.10;0.10;;;;;;;23.96;49.71;100824.81;5133606;27;20039;-35
2022/08/14 00:22:48;;;;;;;0.10;0.10;;;;;;;23.95;49.78;100820.41;5131694;27;20062;-35
2022/08/14 00:25:24;;;;;;;0.10;0.10;;;;;;;23.95;49.80;100814.84;5131041;27;20469;-35
2022/08/14 00:27:55;;;;;;;0.10;0.10;;;;;;;23.95;49.60;100806.50;5130485;27;21126;-35
2022/08/14 00:30:22;;;;;;;0.00;0.00;;;;;;;23.95;49.63;100810.09;5133153;27;20043;-35
2022/08/14 00:32:52;;;;;;;0.10;0.10;;;;;;;23.96;49.72;100813.69;5113864;27;20481;-35
2022/08/14 00:35:22;;;;;;;0.10;0.10;;;;;;;23.95;49.78;100809.28;5131157;27;20043;-35
2022/08/14 00:38:08;;;;;;;0.10;0.10;;;;;;;23.96;49.69;100805.34;5117904;27;20039;-35
2022/08/14 00:40:33;;;;;;;0.10;0.10;;;;;;;23.95;49.75;100806.50;5132886;27;20455;-35
2022/08/14 00:43:01;;;;;;;0.00;0.00;;;;;;;23.95;49.76;100804.53;5131389;27;20055;-38
2022/08/14 00:45:27;;;;;;;0.10;0.10;;;;;;;23.95;49.75;100804.53;5131361;27;20096;-35
2022/08/14 00:47:57;;;;;;;0.10;0.10;;;;;;;23.95;49.76;100790.63;5117471;28;20076;-36
2022/08/14 00:50:27;;;;;;;0.10;0.10;;;;;;;23.95;49.70;100792.59;5134410;27;20042;-36
2022/08/14 00:52:54;;;;;;;0.10;0.10;;;;;;;23.95;49.77;100787.03;5136112;27;20099;-36
2022/08/14 00:55:20;;;;;;;0.10;0.10;;;;;;;23.96;49.85;100791.44;5135774;27;20551;-36
2022/08/14 00:58:29;;;;;;;0.10;0.10;;;;;;;23.96;49.83;100780.31;5131898;27;20040;-36
2022/08/14 01:00:33;;;;;;;0.10;0.10;;;;;;;23.96;49.76;100788.66;5117721;28;20135;-36
2022/08/14 01:03:18;;;;;;;0.00;0.00;;;;;;;23.96;49.83;100771.97;5132741;27;20473;-36
2022/08/14 01:05:48;;;;;;;0.10;0.10;;;;;;;23.94;49.88;100765.91;5116160;27;20118;-36
2022/08/14 01:08:19;;;;;;;0.10;0.10;;;;;;;23.96;49.66;100766.41;5114657;27;20044;-37
2022/08/14 01:11:05;;;;;;;0.10;0.10;;;;;;;23.95;49.65;100768.38;5103586;28;20047;-36
2022/08/14 01:13:34;;;;;;;0.10;0.10;;;;;;;23.95;49.64;100768.38;5133879;27;20127;-36
2022/08/14 01:16:13;;;;;;;0.10;0.10;;;;;;;23.95;49.55;100754.47;5098014;28;20063;-36
2022/08/14 01:21:38;;;;;;;0.10;0.10;;;;;;;23.96;49.70;100760.84;5116914;27;20050;-36
2022/08/14 01:24:15;;;;;;;0.10;0.10;;;;;;;23.95;49.77;100756.41;5104203;27;20043;-36
2022/08/14 01:27:00;;;;;;;0.08;0.08;;;;;;;23.95;49.86;100756.41;5134024;27;20047;-36
2022/08/14 01:29:28;;;;;;;0.10;0.10;;;;;;;23.95;49.79;100745.28;5132258;27;20043;-35
2022/08/14 01:32:14;;;;;;;;;;;;;;;23.95;49.81;100736.94;5116917;27;20505;-36
2022/08/14 01:34:40;;;;;;;0.10;0.10;;;;;;;23.94;49.71;100738.09;5134407;27;20310;-36
2022/08/14 01:37:27;;;;;;;0.10;0.10;;;;;;;23.94;49.76;100725.00;5115101;27;20051;-36
2022/08/14 01:39:56;;;;;;;0.10;0.10;;;;;;;23.95;49.76;100723.03;5128893;27;20126;-36
2022/08/14 01:42:28;;;;;;;0.10;0.10;;;;;;;23.95;49.72;100718.31;5132611;27;20039;-36
2022/08/14 01:45:13;;;;;;;0.10;0.10;;;;;;;23.95;49.73;100717.47;5130106;27;20051;-36
2022/08/14 01:47:50;;;;;;;0.10;0.10;;;;;;;23.95;49.80;100720.25;5129580;27;20046;-36
2022/08/14 01:50:17;;;;;;;0.10;0.10;;;;;;;23.94;49.79;100708.31;5134983;27;20039;-36
2022/08/14 01:52:42;;;;;;;0.10;0.10;;;;;;;23.95;49.69;100717.47;5134476;27;20452;-37
2022/08/14 01:55:30;;;;;;;0.10;0.10;;;;;;;23.95;49.80;100703.56;5131716;27;20078;-36
2022/08/14 01:57:57;;;;;;;0.10;0.10;;;;;;;23.93;49.82;100698.34;5114857;27;20042;-36
2022/08/14 02:00:43;;;;;;;0.10;0.10;;;;;;;23.95;49.75;100695.22;5098347;28;20111;-36
2022/08/14 02:03:13;;;;;;;0.10;0.10;;;;;;;23.95;49.84;100690.47;5095462;27;20039;-36
2022/08/14 02:05:41;;;;;;;0.10;0.10;;;;;;;23.95;49.85;100695.22;5128653;27;20472;-36
2022/08/14 02:08:07;;;;;;;0.10;0.10;;;;;;;23.95;49.84;100693.25;5127442;27;20046;-36
2022/08/14 02:10:35;;;;;;;0.10;0.10;;;;;;;23.95;49.86;100690.47;5133617;27;20479;-36
2022/08/14 02:13:12;;;;;;;0.10;0.10;;;;;;;23.95;49.85;100681.31;5132839;27;20039;-36
2022/08/14 02:15:39;;;;;;;0.10;0.10;;;;;;;23.95;49.73;100693.25;5132069;27;20039;-37
2022/08/14 02:18:08;;;;;;;0.10;0.10;;;;;;;23.96;49.75;100692.16;5132244;27;20068;-36
2022/08/14 02:20:34;;;;;;;0.10;0.10;;;;;;;23.95;49.84;100696.06;5130817;27;20381;-36
2022/08/14 02:23:01;;;;;;;0.10;0.10;;;;;;;23.95;49.99;100695.22;5130440;27;20126;-36
2022/08/14 02:25:29;;;;;;;0.10;0.10;;;;;;;23.95;49.97;100695.22;5134466;27;20057;-36
2022/08/14 02:27:56;;;;;;;0.10;0.10;;;;;;;23.96;49.75;100696.88;5135119;27;20047;-36
2022/08/14 02:30:43;;;;;;;0.10;0.10;;;;;;;23.96;49.87;100702.44;5119488;27;20103;-36
2022/08/14 02:33:10;;;;;;;0.10;0.10;;;;;;;23.95;49.84;100706.34;5130531;27;20051;-36
2022/08/14 02:35:40;;;;;;;0.10;0.10;;;;;;;23.95;49.75;100706.34;5131804;27;20496;-37
2022/08/14 02:38:06;;;;;;;0.10;0.10;;;;;;;23.95;49.80;100695.22;5114024;27;20131;-36
2022/08/14 02:40:38;;;;;;;0.10;0.10;;;;;;;23.95;49.85;100698.00;5131276;27;20423;-36
2022/08/14 02:43:05;;;;;;;0.00;0.00;;;;;;;23.95;49.91;100698.00;5135341;27;20038;-36
2022/08/14 02:45:33;;;;;;;0.00;0.00;;;;;;;23.94;49.82;100702.75;5112529;27;20039;-36
2022/08/14 02:48:11;;;;;;;0.10;0.10;;;;;;;23.96;49.90;100705.22;5134545;27;20457;-36
2022/08/14 02:50:57;;;;;;;0.10;0.10;;;;;;;23.95;49.71;100698.84;5113601;27;20039;-36
2022/08/14 02:53:27;;;;;;;0.10;0.10;;;;;;;23.95;49.87;100704.41;5131890;27;20290;-36
2022/08/14 02:55:55;;;;;;;0.10;0.10;;;;;;;23.96;49.69;100705.22;5131740;27;20043;-36
2022/08/14 02:58:22;;;;;;;0.10;0.10;;;;;;;23.95;49.87;100701.63;5130070;27;20377;-36
2022/08/14 03:00:56;;;;;;;0.10;0.10;;;;;;;23.95;49.81;100707.19;5132269;27;20374;-35
2022/08/14 03:03:23;;;;;;;0.10;0.10;;;;;;;23.95;49.80;100703.56;5132099;27;20046;-36
2022/08/14 03:05:51;;;;;;;0.10;0.10;;;;;;;23.95;49.83;100700.78;5132606;27;20134;-36
2022/08/14 03:08:20;;;;;;;0.10;0.10;;;;;;;23.95;49.85;100704.41;5128158;22;20043;-36
2022/08/14 03:10:46;;;;;;;0.00;0.00;;;;;;;23.96;49.94;100708.84;5090644;28;20104;-36
2022/08/14 03:13:17;;;;;;;0.10;0.10;;;;;;;23.96;49.96;100702.44;5105746;28;20413;-36
2022/08/14 03:15:50;;;;;;;0.10;0.10;;;;;;;23.95;49.91;100698.84;5103807;28;20094;-36
2022/08/14 03:18:23;;;;;;;0.10;0.10;;;;;;;23.96;49.72;100699.66;5104208;28;20586;-36
2022/08/14 03:21:01;;;;;;;0.10;0.10;;;;;;;23.95;49.83;100687.69;5093561;28;20044;-36
2022/08/14 03:23:27;;;;;;;0.10;0.10;;;;;;;23.96;49.96;100691.31;5085967;28;20397;-36
2022/08/14 03:25:52;;;;;;;0.10;0.10;;;;;;;23.95;49.89;100696.06;5090149;28;20511;-36
2022/08/14 03:28:22;;;;;;;0.10;0.10;;;;;;;23.95;49.77;100686.88;5106692;28;20098;-36
2022/08/14 03:30:56;;;;;;;0.10;0.10;;;;;;;23.96;49.87;100688.53;5108371;28;20422;-36
2022/08/14 03:33:26;;;;;;;0.10;0.10;;;;;;;23.94;50.01;100680.50;5106412;28;20048;-36
2022/08/14 03:35:53;;;;;;;0.10;0.10;;;;;;;23.95;49.87;100693.25;5107896;28;20048;-36
2022/08/14 03:38:41;;;;;;;0.10;0.10;;;;;;;23.95;49.99;100684.09;5076271;28;20428;-36
2022/08/14 03:41:27;;;;;;;0.10;0.10;;;;;;;23.95;49.93;100684.09;5092385;28;20100;-36
2022/08/14 03:44:02;;;;;;;0.10;0.10;;;;;;;23.94;49.95;100680.50;5105804;28;20043;-36
2022/08/14 03:46:50;;;;;;;0.10;0.10;;;;;;;23.95;49.88;100682.16;5076991;28;20043;-36
2022/08/14 03:49:23;;;;;;;0.10;0.10;;;;;;;23.95;49.99;100675.75;5087816;28;20044;-36
2022/08/14 03:51:54;;;;;;;0.10;0.10;;;;;;;23.95;49.78;100678.53;5107495;28;20050;-36
2022/08/14 03:54:20;;;;;;;0.10;0.10;;;;;;;23.94;49.78;100677.72;5090402;28;20039;-36
2022/08/14 03:56:46;;;;;;;0.10;0.10;;;;;;;23.94;49.78;100672.16;5108127;28;20139;-36
2022/08/14 03:59:15;;;;;;;0.10;0.10;;;;;;;23.94;49.86;100672.16;5104542;28;20052;-36
2022/08/14 04:01:46;;;;;;;0.10;0.10;;;;;;;23.95;49.85;100676.59;5108903;28;20447;-36
2022/08/14 04:04:26;;;;;;;0.10;0.10;;;;;;;23.95;50.01;100670.19;5106763;28;20039;-36
2022/08/14 04:06:52;;;;;;;0.10;0.10;;;;;;;23.95;49.94;100670.19;5092288;28;20056;-36
2022/08/14 04:09:18;;;;;;;0.10;0.10;;;;;;;23.95;49.97;100667.41;5103981;28;20043;-36
2022/08/14 04:11:45;;;;;;;0.17;0.17;;;;;;;23.94;49.84;100666.59;5107435;28;20130;-36
2022/08/14 04:14:13;;;;;;;0.10;0.10;;;;;;;23.95;49.83;100665.44;5107754;28;20402;-36
2022/08/14 04:16:46;;;;;;;0.10;0.10;;;;;;;23.95;49.85;100673.81;5108159;28;20043;-36
2022/08/14 04:19:18;;;;;;;0.10;0.10;;;;;;;23.95;49.81;100668.22;5093488;28;20051;-36
2022/08/14 04:21:44;;;;;;;0.10;0.10;;;;;;;23.95;50.09;100671.00;5112009;28;20051;-36
2022/08/14 04:24:29;;;;;;;0.10;0.10;;;;;;;23.95;50.03;100661.84;5112940;28;20403;-36
2022/08/14 04:26:57;;;;;;;0.10;0.10;;;;;;;23.95;49.96;100678.53;5105596;28;20075;-36
2022/08/14 04:29:22;;;;;;;0.10;0.10;;;;;;;23.94;49.98;100674.94;5092620;28;20070;-36
2022/08/14 04:31:50;;;;;;;0.10;0.10;;;;;;;23.95;49.93;100670.19;5106538;28;20048;-36
2022/08/14 04:34:40;;;;;;;0.10;0.10;;;;;;;23.95;49.88;100675.75;5093498;28;20079;-36
2022/08/14 04:45:42;;;;;;;0.10;0.10;;;;;;;23.95;49.81;100661.84;5076411;28;20101;-35
2022/08/14 04:48:12;;;;;;;0.10;0.10;;;;;;;23.95;49.86;100653.50;5068046;28;20083;-35
2022/08/14 04:50:41;;;;;;;0.10;0.10;;;;;;;23.94;50.00;100655.47;5090642;28;20040;-36
2022/08/14 04:53:13;;;;;;;0.10;0.10;;;;;;;23.95;49.83;100656.28;5091314;28;20044;-35
2022/08/14 04:55:41;;;;;;;0.10;0.10;;;;;;;23.95;50.02;100653.50;5076905;28;20044;-36
2022/08/14 04:58:08;;;;;;;0.10;0.10;;;;;;;23.95;49.88;100654.31;5110997;28;20135;-36
2022/08/14 05:00:49;;;;;;;0.10;0.10;;;;;;;23.95;49.93;100647.94;5093696;28;20039;-36
2022/08/14 05:03:19;;;;;;;0.10;0.10;;;;;;;23.95;49.80;100640.41;5110650;28;20525;-36
2022/08/14 05:05:49;;;;;;;0.10;0.10;;;;;;;23.94;49.87;100647.13;5105874;28;20100;-36
2022/08/14 05:08:20;;;;;;;0.10;0.10;;;;;;;23.95;50.15;100647.94;5107745;28;20048;-36
2022/08/14 05:11:06;;;;;;;0.10;0.10;;;;;;;23.95;49.93;100656.28;5091496;28;20452;-36
2022/08/14 05:13:37;;;;;;;0.10;0.10;;;;;;;23.95;49.89;100642.38;5072108;28;20047;-36
2022/08/14 05:16:25;;;;;;;0.10;0.10;;;;;;;23.94;49.85;100637.97;5093181;28;20044;-36
2022/08/14 05:18:51;;;;;;;0.10;0.10;;;;;;;23.95;49.92;100647.94;5108864;28;20466;-36
2022/08/14 05:21:36;;;;;;;0.10;0.10;;;;;;;23.95;49.97;100640.41;5095559;28;20112;-36
2022/08/14 05:24:22;;;;;;;0.10;0.10;;;;;;;23.95;49.79;100639.59;5091772;28;20040;-36
2022/08/14 05:26:48;;;;;;;0.10;0.10;;;;;;;23.94;49.81;100637.97;5110368;28;20096;-36
2022/08/14 05:29:15;;;;;;;0.10;0.10;;;;;;;23.94;50.00;100633.22;5111076;28;20044;-36
2022/08/14 05:31:40;;;;;;;0.10;0.10;;;;;;;23.95;50.02;100628.47;5110524;28;20039;-36
2022/08/14 05:34:08;;;;;;;0.10;0.10;;;;;;;23.94;50.05;100627.66;5093345;28;20036;-36
2022/08/14 05:36:34;;;;;;;0.00;0.00;;;;;;;23.95;49.86;100625.69;5108590;28;20048;-36
2022/08/14 05:39:03;;;;;;;0.10;0.10;;;;;;;23.95;50.00;100628.47;5107899;28;20043;-36
2022/08/14 05:41:29;;;;;;;0.10;0.10;;;;;;;23.94;50.14;100619.31;5104323;28;20130;-36
2022/08/14 05:44:14;;;;;;;0.10;0.10;;;;;;;23.94;49.90;100621.28;5076665;28;20044;-36
2022/08/14 05:46:40;;;;;;;0.10;0.10;;;;;;;23.94;49.95;100616.53;5108708;28;20492;-36
2022/08/14 05:49:08;;;;;;;0.10;0.10;;;;;;;23.95;49.97;100611.78;5109532;28;20493;-36
2022/08/14 05:51:34;;;;;;;0.10;0.10;;;;;;;23.95;50.12;100614.56;5110529;28;20349;-38
2022/08/14 05:54:01;;;;;;;0.10;0.10;;;;;;;23.95;49.96;100618.16;5110220;28;20130;-36
2022/08/14 05:56:47;;;;;;;0.10;0.10;;;;;;;23.94;50.08;100618.50;5090590;28;20367;-35
2022/08/14 05:59:14;;;;;;;0.10;0.10;;;;;;;23.94;49.94;100608.19;5110784;28;20058;-36
2022/08/14 06:01:42;;;;;;;0.10;0.10;;;;;;;23.95;49.94;100609.00;5110309;28;20043;-36
2022/08/14 06:04:08;;;;;;;0.10;0.10;;;;;;;23.95;50.10;100606.22;5110040;28;20089;-36
2022/08/14 06:06:37;;;;;;;0.10;0.10;;;;;;;23.95;50.08;100609.00;5100711;28;20047;-36
2022/08/14 06:09:04;;;;;;;0.10;0.10;;;;;;;23.95;50.15;100612.59;5107293;28;20079;-36
2022/08/14 06:11:30;;;;;;;0.10;0.10;;;;;;;23.95;49.96;100609.00;5107193;28;20109;-36
2022/08/14 06:13:57;;;;;;;0.10;0.10;;;;;;;23.95;50.05;100614.56;5107700;28;20044;-35
2022/08/14 06:16:23;;;;;;;0.10;0.10;;;;;;;23.97;50.01;100615.09;5086055;28;20128;-36
2022/08/14 06:18:48;;;;;;;0.10;0.10;;;;;;;23.94;49.86;100608.19;5106331;28;20065;-36
2022/08/14 06:21:20;;;;;;;0.10;0.10;;;;;;;23.95;49.89;100612.59;5106284;28;20052;-36
2022/08/14 06:23:47;;;;;;;0.10;0.10;;;;;;;23.95;49.89;100607.03;5091274;28;20120;-36
2022/08/14 06:26:14;;;;;;;0.10;0.10;;;;;;;23.96;50.00;100611.50;5089826;28;20048;-36
2022/08/14 06:28:41;;;;;;;0.10;0.10;;;;;;;23.96;49.91;100607.88;5102876;28;20122;-36
2022/08/14 06:31:10;;;;;;;0.10;0.10;;;;;;;23.95;49.95;100606.22;5107344;28;20120;-36
2022/08/14 06:33:36;;;;;;;0.10;0.10;;;;;;;23.96;49.86;100607.88;5109991;28;20416;-36
2022/08/14 06:36:22;;;;;;;0.10;0.10;;;;;;;23.95;50.09;100609.81;5093639;28;20050;-36
2022/08/14 06:38:50;;;;;;;0.10;0.10;;;;;;;23.95;50.02;100609.00;5107239;28;20051;-36
2022/08/14 06:41:16;;;;;;;0.10;0.10;;;;;;;23.95;49.91;100606.22;5110701;28;20043;-36
2022/08/14 06:43:46;;;;;;;0.10;0.10;;;;;;;23.95;50.11;100600.66;5107597;28;20402;-36
2022/08/14 06:46:14;;;;;;;;;;;;;;;23.95;50.11;100597.88;5105568;28;20375;-36
2022/08/14 06:48:58;;;;;;;0.10;0.10;;;;;;;23.93;50.04;100594.63;5108744;28;20007;-36
2022/08/14 06:51:23;;;;;;;0.10;0.10;;;;;;;23.94;50.09;100597.06;5109011;28;20047;-36
2022/08/14 06:53:49;;;;;;;0.10;0.10;;;;;;;23.95;49.87;100600.66;5103832;28;20044;-36
2022/08/14 06:56:15;;;;;;;0.10;0.10;;;;;;;23.95;49.93;100586.75;5091532;28;20129;-36
2022/08/14 06:58:41;;;;;;;0.10;0.10;;;;;;;23.95;50.25;100593.13;5090110;28;20086;-36
2022/08/14 07:06:51;;;;;;;0.10;0.10;;;;;;;23.93;49.98;100581.53;5077379;28;20082;-35
2022/08/14 07:09:21;;;;;;;0.10;0.10;;;;;;;23.94;50.00;100583.16;5105212;28;20042;-36
2022/08/14 07:11:49;;;;;;;0.10;0.10;;;;;;;23.94;49.96;100579.56;5107910;28;20055;-36
2022/08/14 07:14:14;;;;;;;0.10;0.10;;;;;;;23.94;49.88;100577.59;5109219;28;20500;-36
2022/08/14 07:16:41;;;;;;;0.10;0.10;;;;;;;23.93;50.06;100573.19;5108323;28;20098;-36
2022/08/14 07:19:08;;;;;;;0.10;0.10;;;;;;;23.94;49.97;100568.44;5105404;28;20050;-36
2022/08/14 07:21:34;;;;;;;0.10;0.10;;;;;;;23.94;49.93;100565.66;5106055;28;20082;-36
2022/08/14 07:24:02;;;;;;;0.10;0.10;;;;;;;23.94;50.02;100560.09;5091737;28;20127;-36
2022/08/14 07:26:28;;;;;;;0.10;0.10;;;;;;;23.94;50.10;100572.03;5104898;28;20047;-36
2022/08/14 07:28:54;;;;;;;0.10;0.10;;;;;;;23.95;49.93;100564.50;5105260;28;20040;-36
2022/08/14 07:31:20;;;;;;;0.10;0.10;;;;;;;23.94;50.05;100562.88;5109904;28;20062;-36
2022/08/14 07:33:47;;;;;;;0.10;0.10;;;;;;;23.94;50.02;100565.66;5104844;28;20382;-36
2022/08/14 07:36:17;;;;;;;0.10;0.10;;;;;;;23.95;49.91;100561.72;5074223;28;20126;-36
2022/08/14 07:38:57;;;;;;;0.10;0.10;;;;;;;23.96;49.80;100563.34;5110225;28;20478;-36
2022/08/14 07:41:23;;;;;;;0.10;0.10;;;;;;;23.94;50.12;100558.13;5111424;28;20075;-36
2022/08/14 07:43:49;;;;;;;0.10;0.10;;;;;;;23.95;50.15;100559.75;5109276;28;20046;-36
2022/08/14 07:46:22;;;;;;;0.13;0.13;;;;;;;23.95;49.84;100559.75;5107953;28;20046;-36
2022/08/14 07:48:56;;;;;;;0.10;0.10;;;;;;;23.94;50.01;100549.78;5113962;28;20043;-36
2022/08/14 07:51:22;;;;;;;0.00;0.00;;;;;;;23.95;50.05;100558.94;5095836;28;20391;-36
2022/08/14 07:53:49;;;;;;;0.10;0.10;;;;;;;23.94;50.08;100554.53;5075539;28;20044;-35
2022/08/14 07:56:22;;;;;;;0.10;0.10;;;;;;;23.94;50.12;100551.75;5090950;28;20050;-36
2022/08/14 07:59:08;;;;;;;0.10;0.10;;;;;;;23.94;50.14;100547.00;5092659;28;20043;-36
2022/08/14 08:01:34;;;;;;;0.10;0.10;;;;;;;23.95;50.15;100547.81;5111398;28;20069;-36
2022/08/14 08:04:02;;;;;;;0.10;0.10;;;;;;;23.95;49.87;100550.59;5112742;28;20044;-36
2022/08/14 08:06:29;;;;;;;0.10;0.10;;;;;;;23.95;50.10;100551.41;5109697;28;20051;-36
2022/08/14 08:08:57;;;;;;;0.10;0.10;;;;;;;23.95;50.18;100550.59;5092687;28;20061;-36
2022/08/14 08:11:31;;;;;;;0.10;0.10;;;;;;;23.94;50.06;100555.34;5094128;28;20040;-36
2022/08/14 08:14:05;;;;;;;0.05;0.05;;;;;;;23.94;49.95;100555.34;5110610;28;20101;-36
2022/08/14 08:16:37;;;;;;;0.10;0.10;;;;;;;23.94;50.04;100560.91;5094035;28;20039;-36
2022/08/14 08:19:05;;;;;;;0.10;0.10;;;;;;;23.95;50.04;100550.59;5111223;28;20521;-35
2022/08/14 08:21:39;;;;;;;0.10;0.10;;;;;;;23.94;50.16;100554.53;5110762;28;20055;-36
2022/08/14 08:24:09;;;;;;;0.10;0.10;;;;;;;23.95;50.16;100556.16;5108003;28;20135;-36
2022/08/14 08:26:35;;;;;;;0.10;0.10;;;;;;;23.94;50.10;100549.78;5094701;28;20035;-36
2022/08/14 08:29:05;;;;;;;0.10;0.10;;;;;;;23.94;50.00;100552.56;5107446;28;20048;-35
2022/08/14 08:31:31;;;;;;;0.10;0.10;;;;;;;23.95;50.00;100556.16;5099550;28;20044;-36
2022/08/14 08:34:04;;;;;;;0.10;0.10;;;;;;;23.94;50.06;100546.19;5106093;28;20071;-35
2022/08/14 08:36:39;;;;;;;0.10;0.10;;;;;;;23.95;50.13;100543.06;5103910;28;20043;-36
2022/08/14 08:39:07;;;;;;;0.10;0.10;;;;;;;23.94;50.10;100538.66;5110091;28;20078;-36
2022/08/14 08:41:47;;;;;;;0.10;0.10;;;;;;;23.94;50.12;100535.88;5095173;28;20309;-35
2022/08/14 08:44:18;;;;;;;0.10;0.10;;;;;;;23.94;50.22;100537.84;5108368;28;20039;-35
2022/08/14 08:47:03;;;;;;;0.10;0.10;;;;;;;23.94;50.17;100537.84;5107932;28;20048;-36
2022/08/14 08:49:41;;;;;;;0.10;0.10;;;;;;;23.95;50.03;100545.03;5087233;28;20163;-35
2022/08/14 08:52:15;;;;;;;0.10;0.10;;;;;;;23.94;49.98;100544.22;5072082;28;20067;-36
2022/08/14 08:54:56;;;;;;;0.10;0.10;;;;;;;23.94;50.16;100535.88;5111747;28;20043;-36
2022/08/14 08:57:22;;;;;;;0.10;0.10;;;;;;;23.94;50.12;100538.66;5110026;28;20042;-36
2022/08/14 08:59:49;;;;;;;0.10;0.10;;;;;;;23.94;50.02;100529.50;5092763;28;20040;-36
2022/08/14 09:02:24;;;;;;;0.10;0.10;;;;;;;23.94;50.13;100533.09;5106604;28;20099;-36
2022/08/14 09:05:00;;;;;;;0.10;0.10;;;;;;;23.95;49.97;100522.78;5094098;28;20108;-36
2022/08/14 09:07:26;;;;;;;0.10;0.10;;;;;;;23.94;50.19;100515.59;5111300;28;20044;-36
2022/08/14 09:09:55;;;;;;;0.10;0.10;;;;;;;23.95;50.17;100522.78;5109612;28;20043;-36
2022/08/14 09:12:27;;;;;;;0.10;0.10;;;;;;;23.94;50.19;100532.28;5107346;28;20047;-36
2022/08/14 09:15:12;;;;;;;0.10;0.10;;;;;;;23.94;49.88;100529.50;5107460;28;20055;-36
2022/08/14 09:17:39;;;;;;;0.10;0.10;;;;;;;23.95;50.10;100531.13;5104964;28;20455;-36
2022/08/14 09:20:07;;;;;;;0.10;0.10;;;;;;;23.94;50.09;100527.53;5092793;28;20039;-36
2022/08/14 09:22:39;;;;;;;0.10;0.10;;;;;;;23.95;50.00;100531.13;5092873;28;20043;-36
2022/08/14 09:25:14;;;;;;;0.10;0.10;;;;;;;23.94;50.05;100519.19;5110358;28;20063;-36
2022/08/14 09:27:40;;;;;;;0.10;0.10;;;;;;;23.94;49.98;100510.03;5111716;28;20036;-36
2022/08/14 09:30:08;;;;;;;0.10;0.10;;;;;;;23.95;50.09;100511.66;5089628;28;20082;-35
2022/08/14 09:36:23;;;;;;;0.10;0.10;;;;;;;23.93;50.21;100500.88;5166144;27;21320;-33
2022/08/14 09:39:16;;;;;;;0.10;0.10;;;;;;;23.94;50.13;100494.16;5151319;27;20070;-34
2022/08/14 09:42:02;;;;;;;0.10;0.10;;;;;;;23.94;50.01;100496.13;5147025;27;20035;-34
2022/08/14 09:45:15;;;;;;;0.10;0.10;;;;;;;23.94;50.13;100487.78;5109364;27;20043;-34
2022/08/14 09:47:51;;;;;;;0.10;0.10;;;;;;;23.95;50.18;100489.41;5118858;27;20450;-34
2022/08/14 09:53:01;;;;;;;0.10;0.10;;;;;;;23.95;50.17;100469.94;5165889;27;20594;-33
2022/08/14 09:55:34;;;;;;;0.10;0.10;;;;;;;23.94;50.08;100463.56;5148546;27;20087;-34
2022/08/14 09:58:13;;;;;;;0.10;0.10;;;;;;;23.93;50.21;100453.59;5147861;27;20103;-34
2022/08/14 10:00:52;;;;;;;0.10;0.10;;;;;;;23.94;50.27;100460.78;5112866;27;20054;-34
2022/08/14 10:03:35;;;;;;;0.10;0.10;;;;;;;23.94;50.05;100451.63;5129817;27;20082;-34
2022/08/14 10:06:12;;;;;;;0.10;0.10;;;;;;;23.94;50.19;100463.56;5129681;27;20139;-34
2022/08/14 10:08:43;;;;;;;0.10;0.10;;;;;;;23.95;50.03;100469.94;5115713;27;20058;-34
2022/08/14 10:11:16;;;;;;;0.10;0.10;;;;;;;23.95;50.19;100456.03;5148730;27;20039;-34
2022/08/14 10:13:42;;;;;;;0.10;0.10;;;;;;;23.94;50.03;100448.84;5129262;27;20139;-34
2022/08/14 10:16:27;;;;;;;0.10;0.10;;;;;;;23.94;50.26;100451.63;5146566;27;20096;-34
2022/08/14 10:19:08;;;;;;;0.10;0.10;;;;;;;23.94;50.08;100443.28;5146139;27;20082;-34
2022/08/14 10:21:37;;;;;;;0.10;0.10;;;;;;;23.94;50.24;100438.53;5130956;27;20439;-34
2022/08/14 10:24:08;;;;;;;0.10;0.10;;;;;;;23.95;50.17;100444.91;5148056;27;20038;-34
2022/08/14 10:26:35;;;;;;;0.10;0.10;;;;;;;23.94;50.08;100435.75;5132763;27;20039;-34
2022/08/14 10:29:06;;;;;;;0.10;0.10;;;;;;;23.94;50.27;100426.59;5129405;27;20127;-34
2022/08/14 10:31:56;;;;;;;0.10;0.10;;;;;;;23.94;50.11;100434.94;5125488;27;20404;-34
2022/08/14 10:34:22;;;;;;;0.10;0.10;;;;;;;23.94;50.20;100423.81;5148638;27;20080;-34
2022/08/14 10:37:06;;;;;;;0.10;0.10;;;;;;;23.93;50.07;100419.41;5148409;27;20133;-34
2022/08/14 10:39:41;;;;;;;0.10;0.10;;;;;;;23.94;50.20;100421.03;5148209;27;20039;-34
2022/08/14 10:42:42;;;;;;;0.10;0.10;;;;;;;23.94;50.14;100410.72;5134126;27;20046;-34
2022/08/14 10:45:19;;;;;;;0.10;0.10;;;;;;;23.95;50.17;100405.97;5146914;27;20492;-34
2022/08/14 10:47:48;;;;;;;0.10;0.10;;;;;;;23.95;50.05;100400.41;5130155;27;20312;-34
2022/08/14 10:50:37;;;;;;;0.10;0.10;;;;;;;23.94;50.14;100405.16;5118773;27;20046;-34
2022/08/14 10:53:04;;;;;;;0.10;0.10;;;;;;;23.96;50.08;100410.38;5146503;27;20405;-34
2022/08/14 10:55:33;;;;;;;0.10;0.10;;;;;;;23.95;50.24;100401.22;5147467;27;20085;-35
2022/08/14 10:58:09;;;;;;;0.10;0.10;;;;;;;23.95;50.05;100398.44;5146585;27;20181;-34
2022/08/14 11:00:35;;;;;;;0.10;0.10;;;;;;;23.95;50.15;100397.63;5125882;27;20042;-34
2022/08/14 11:03:08;;;;;;;0.10;0.10;;;;;;;23.94;50.20;100396.81;5121664;27;20046;-34
2022/08/14 11:05:40;;;;;;;0.10;0.10;;;;;;;23.95;50.16;100394.84;5099424;27;20518;-34
2022/08/14 11:08:07;;;;;;;0.10;0.10;;;;;;;23.95;50.13;100394.84;5116413;27;20146;-34
2022/08/14 11:10:54;;;;;;;0.10;0.10;;;;;;;23.95;50.08;100386.50;5115138;27;20051;-34
2022/08/14 11:13:24;;;;;;;0.10;0.10;;;;;;;23.95;50.07;100386.50;5115130;27;20050;-34
2022/08/14 11:15:50;;;;;;;;;;;;;;;23.96;50.23;100393.69;5128003;27;20462;-33
2022/08/14 11:18:18;;;;;;;0.10;0.10;;;;;;;23.94;50.16;100394.03;5133651;27;20242;-34
2022/08/14 11:20:58;;;;;;;0.10;0.10;;;;;;;23.95;50.03;100390.09;5133568;27;20047;-33
2022/08/14 11:23:33;;;;;;;0.10;0.10;;;;;;;23.94;50.08;100380.13;5134677;27;20094;-34
2022/08/14 11:26:07;;;;;;;0.10;0.10;;;;;;;23.94;50.11;100380.13;5134787;27;20491;-34
2022/08/14 11:28:38;;;;;;;0.10;0.10;;;;;;;23.93;49.98;100384.06;5132878;27;20073;-34
2022/08/14 11:31:18;;;;;;;0.10;0.10;;;;;;;23.95;50.05;100380.94;5131821;27;20054;-34
2022/08/14 11:33:50;;;;;;;0.00;0.00;;;;;;;23.93;50.25;100370.16;5131856;27;20088;-34
2022/08/14 11:36:16;;;;;;;0.10;0.10;;;;;;;23.95;50.12;100380.94;5135050;27;20500;-34
2022/08/14 11:38:44;;;;;;;0.10;0.10;;;;;;;23.95;50.33;100386.50;5113814;27;20035;-34
2022/08/14 11:41:12;;;;;;;0.10;0.10;;;;;;;23.95;50.11;100373.41;5131378;27;20050;-34
2022/08/14 11:43:40;;;;;;;0.10;0.10;;;;;;;23.94;50.17;100363.44;5122009;27;20055;-34
2022/08/14 11:46:07;;;;;;;0.10;0.10;;;;;;;23.93;50.07;100361.81;5119973;28;20131;-34
2022/08/14 11:48:53;;;;;;;0.10;0.10;;;;;;;23.95;50.21;100353.13;5090768;28;20555;-34
2022/08/14 11:51:30;;;;;;;0.10;0.10;;;;;;;23.95;50.19;100361.47;5104932;28;20040;-34
2022/08/14 11:54:04;;;;;;;0.10;0.10;;;;;;;23.94;50.00;100348.72;5124611;28;20308;-34
2022/08/14 11:56:40;;;;;;;0.00;0.00;;;;;;;23.94;50.25;100340.38;5100205;28;20047;-34
2022/08/14 11:59:13;;;;;;;0.10;0.10;;;;;;;23.93;50.17;100342.34;5103318;28;20473;-34
2022/08/14 12:01:39;;;;;;;0.10;0.10;;;;;;;23.95;50.29;100345.59;5119514;28;20498;-34
2022/08/14 12:04:12;;;;;;;0.00;0.00;;;;;;;23.95;50.28;100342.81;5118439;28;20408;-34
2022/08/14 12:06:57;;;;;;;0.10;0.10;;;;;;;23.94;50.16;100329.25;5090635;28;20043;-34
2022/08/14 12:09:30;;;;;;;0.10;0.10;;;;;;;23.94;50.17;100326.47;5117522;28;20462;-34
2022/08/14 12:11:56;;;;;;;0.10;0.10;;;;;;;23.94;50.30;100320.91;5100375;28;20211;-35
2022/08/14 12:14:22;;;;;;;0.10;0.10;;;;;;;23.95;50.16;100323.34;5100355;28;20042;-34